Latest Weather Observations for Thredbo Top Station

IDN60901

Issued at 3:51 pm EDT Saturday 17 November 2018 (issued every 10 minutes, with the page automatically refreshed every 10 minutes)

About weather observations | Map of Canberra area stations | Latest observations for Canberra area | Other Formats
Station Details ID: 071032 Name: THREDBO AWS Lat: -36.49 Lon: 148.29 Height: 1957.0 m
Data from the previous 72 hours. | See also: Recent months at Thredbo Top Station
Date/Time
EDT
Temp
°C
App
Temp
°C
Dew
Point
°C
Rel
Hum
%
Delta-T
°C
Wind Press
QNH
hPa
Press
MSL
hPa
Rain since
9am
mm
Dir  Spd
km/h
Gust
km/h
Spd
kts
Gust
kts
17/03:30pm 10.0 6.1 3.3 63 3.3 E 13 20 7 11 1024.3 1019.5 0.0
17/03:00pm 8.1 3.3 2.6 68 2.6 ESE 17 30 9 16 1024.5 1019.6 0.0
17/02:30pm 8.3 4.4 3.4 71 2.4 E 13 20 7 11 1024.5 1019.6 0.0
17/02:00pm 9.7 6.1 4.9 72 2.4 E 13 24 7 13 1024.3 1019.5 0.0
17/01:30pm 7.4 2.6 2.7 72 2.2 E 17 28 9 15 1024.3 1019.5 0.0
17/01:00pm 7.6 3.3 3.3 74 2.1 E 15 28 8 15 1024.5 1019.6 0.0
17/12:30pm 6.7 2.4 3.1 78 1.7 SE 15 28 8 15 1024.5 1019.6 0.0
17/12:00pm 7.7 4.0 4.5 80 1.6 ESE 13 24 7 13 1024.3 1019.5 0.0
17/11:30am 7.1 2.9 3.7 79 1.6 ESE 15 28 8 15 1024.2 1019.4 0.0
17/11:00am 7.2 3.7 3.6 78 1.7 E 11 22 6 12 1024.1 1019.2 0.0
17/10:30am 6.3 2.3 2.9 79 1.6 ENE 13 22 7 12 1023.9 1019.0 0.0
17/10:00am 6.6 2.7 3.2 79 1.6 E 13 20 7 11 1023.6 1018.7 0.0
17/09:30am 3.8 0.7 3.4 97 0.2 ESE 9 17 5 9 1023.6 1018.7 0.0
17/09:00am 3.8 0.3 3.4 97 0.2 E 11 19 6 10 1023.4 1018.5 0.0
17/08:30am 3.3 -0.3 2.9 97 0.2 ENE 11 17 6 9 1023.0 1018.1 0.0
17/08:00am 2.9 -0.4 2.5 97 0.2 NE 9 15 5 8 1022.8 1017.9 0.0
17/07:30am 2.7 -0.2 2.4 98 0.1 E 7 13 4 7 1022.5 1017.6 0.0
17/07:00am 2.6 -0.2 2.2 97 0.2 ESE 6 11 3 6 1022.4 1017.5 0.0
17/06:30am 2.6 -0.7 2.3 98 0.1 ESE 9 11 5 6 1022.2 1017.2 0.0
17/06:00am 2.7 0.0 2.4 98 0.1 E 6 9 3 5 1021.8 1016.8 0.0
17/05:30am 2.7 0.0 2.4 98 0.1 E 6 9 3 5 1021.6 1016.6 0.0
17/05:00am 2.9 0.0 2.6 98 0.1 ESE 7 11 4 6 1021.3 1016.3 0.0
17/04:30am 3.0 0.3 2.7 98 0.1 E 6 9 3 5 1021.2 1016.2 0.0
17/04:00am 3.1 0.8 2.8 98 0.1 ENE 4 7 2 4 1021.1 1016.1 0.0
17/03:30am 3.1 0.4 2.8 98 0.1 E 6 9 3 5 1021.2 1016.2 0.0
17/03:00am 3.2 0.9 2.9 98 0.1 E 4 7 2 4 1021.3 1016.3 0.0
17/02:30am 3.3 0.5 3.0 98 0.1 SSE 7 11 4 6 1021.6 1016.6 0.0
17/02:00am 3.5 0.9 3.2 98 0.1 SE 6 9 3 5 1021.8 1016.8 0.0
17/01:30am 3.7 1.1 3.4 98 0.1 SSE 6 11 3 6 1022.2 1017.2 0.0
17/01:00am 4.0 1.5 3.7 98 0.1 SE 6 11 3 6 1022.4 1017.5 0.0
17/12:30am 4.2 2.1 3.9 98 0.1 SSE 4 6 2 3 1022.5 1017.6 0.0
17/12:00am 4.4 2.0 4.1 98 0.1 E 6 7 3 4 1022.7 1017.7 0.0
 
Date/Time
EDT
Temp
°C
App
Temp
°C
Dew
Point
°C
Rel
Hum
%
Delta-T
°C
Wind Press
QNH
hPa
Press
MSL
hPa
Rain since
9am
mm
Dir  Spd
km/h
Gust
km/h
Spd
kts
Gust
kts
16/11:30pm 4.5 2.5 4.2 98 0.1 ENE 4 6 2 3 1022.7 1017.7 0.0
16/11:00pm 4.4 2.7 4.1 98 0.1 SE 2 4 1 2 1022.8 1017.9 0.0
16/10:30pm 4.6 2.6 4.3 98 0.1 SSE 4 7 2 4 1022.9 1018.0 0.0
16/10:00pm 4.5 2.4 4.1 97 0.2 N 4 7 2 4 1022.9 1018.0 0.0
16/09:30pm 5.5 2.6 4.8 95 0.3 WSW 9 13 5 7 1022.7 1017.7 0.0
16/09:00pm 6.3 3.7 4.0 85 1.1 SSW 7 13 4 7 1022.5 1017.6 0.0
16/08:30pm 6.0 0.9 3.3 83 1.3 NW 19 22 10 12 1022.0 1017.1 0.0
16/08:00pm 6.9 1.9 3.5 79 1.6 NW 19 24 10 13 1022.0 1017.1 0.0
16/07:30pm 7.3 2.6 3.0 74 2.0 NW 17 22 9 12 1021.9 1017.0 0.0
16/07:00pm 8.5 4.5 2.7 67 2.8 NW 13 19 7 10 1021.8 1016.8 0.0
16/06:30pm 8.6 4.8 1.7 62 3.2 NW 11 19 6 10 1021.7 1016.7 0.0
16/06:00pm 9.7 5.1 1.8 58 3.7 NW 15 22 8 12 1021.6 1016.6 0.0
16/05:30pm 11.0 7.0 2.8 57 4.0 W 13 20 7 11 1021.6 1016.6 0.0
16/05:00pm 10.8 6.8 3.1 59 3.8 WNW 13 32 7 17 1021.7 1016.7 0.0
16/04:30pm 11.1 6.4 3.4 59 3.8 WNW 17 30 9 16 1021.7 1016.7 0.0
16/04:00pm 11.2 6.4 2.5 55 4.2 WNW 17 26 9 14 1021.8 1016.8 0.0
16/03:30pm 10.5 5.0 1.9 55 4.1 WNW 20 28 11 15 1022.0 1017.1 0.0
16/03:00pm 10.1 3.7 0.7 52 4.3 NW 24 33 13 18 1022.0 1017.1 0.0
16/02:30pm 10.1 3.5 2.2 58 3.8 NW 26 37 14 20 1022.0 1017.1 0.0
16/02:00pm 9.9 4.4 4.1 67 2.9 NNW 22 33 12 18 1022.0 1017.1 0.0
16/01:30pm 9.7 4.5 3.4 65 3.1 NNW 20 33 11 18 1022.3 1017.4 0.0
16/01:00pm 9.0 2.4 1.9 61 3.3 NNW 26 39 14 21 1022.7 1017.7 0.0
16/12:30pm 8.8 2.7 2.6 65 3.0 WNW 24 43 13 23 1022.9 1018.0 0.0
16/12:00pm 9.1 3.9 2.4 63 3.2 NW 19 35 10 19 1022.7 1017.7 0.0
16/11:30am 8.6 2.7 -0.7 52 4.1 NW 20 33 11 18 1022.8 1017.9 0.0
16/11:00am 8.8 3.7 0.8 57 3.7 W 17 32 9 17 1022.9 1018.0 0.0
16/10:30am 8.4 4.2 1.6 62 3.2 WSW 13 28 7 15 1023.0 1018.1 0.0
16/10:00am 8.5 3.5 1.6 62 3.2 NW 17 30 9 16 1022.8 1017.9 0.0
16/09:30am 8.0 2.3 2.9 70 2.4 NW 22 33 12 18 1022.8 1017.9 0.0
16/09:00am 6.0 -1.9 2.5 78 1.6 NNW 33 44 18 24 1022.4 1017.5 0.2
16/08:30am 5.3 -2.6 2.5 82 1.3 NNW 33 44 18 24 1022.2 1017.2 0.2
16/08:00am 5.4 -1.7 1.5 76 1.8 NNW 28 35 15 19 1022.3 1017.4 0.2
16/07:30am 4.7 0.8 3.4 91 0.6 NNE 13 20 7 11 1022.0 1017.1 0.2
16/07:00am 3.6 -1.7 3.2 97 0.2 N 20 24 11 13 1022.2 1017.2 0.2
16/06:30am 2.7 -3.5 2.3 97 0.2 NNW 24 28 13 15 1022.2 1017.2 0.2
16/06:00am 1.9 -3.5 1.5 97 0.2 N 19 22 10 12 1022.3 1017.4 0.2
16/05:30am 2.4 -2.9 2.0 97 0.2 N 19 24 10 13 1022.2 1017.2 0.2
16/05:00am 1.8 -2.4 1.4 97 0.2 N 13 17 7 9 1022.4 1017.5 0.2
16/04:30am 1.6 -2.3 1.2 97 0.2 N 11 15 6 8 1022.3 1017.4 0.2
16/04:00am 1.6 -4.0 1.2 97 0.2 N 20 26 11 14 1022.4 1017.5 0.2
16/03:30am 1.6 -3.8 1.2 97 0.2 N 19 24 10 13 1022.7 1017.7 0.2
16/03:00am 1.3 -4.2 0.9 97 0.2 N 19 24 10 13 1022.9 1018.0 0.2
16/02:30am 1.3 -5.1 0.9 97 0.2 NNW 24 30 13 16 1023.0 1018.1 0.2
16/02:00am 1.1 -5.7 0.7 97 0.2 NNW 26 32 14 17 1023.3 1018.4 0.2
16/01:30am 1.3 -5.5 0.9 97 0.2 NNW 26 30 14 16 1023.6 1018.7 0.2
16/01:00am 1.0 -2.0 0.6 97 0.2 E 6 9 3 5 1024.2 1019.4 0.2
16/12:30am 1.0 -4.1 0.6 97 0.2 NE 17 20 9 11 1024.6 1019.7 0.2
16/12:00am 1.6 -2.3 1.2 97 0.2 ENE 11 15 6 8 1024.7 1019.9 0.2
 
Date/Time
EDT
Temp
°C
App
Temp
°C
Dew
Point
°C
Rel
Hum
%
Delta-T
°C
Wind Press
QNH
hPa
Press
MSL
hPa
Rain since
9am
mm
Dir  Spd
km/h
Gust
km/h
Spd
kts
Gust
kts
15/11:30pm 1.7 -2.6 1.3 97 0.2 ENE 13 17 7 9 1024.8 1020.0 0.2
15/11:00pm 2.0 -1.8 1.7 98 0.1 ENE 11 17 6 9 1025.0 1020.1 0.2
15/10:30pm 2.0 -2.2 1.7 98 0.1 NE 13 15 7 8 1025.1 1020.3 0.2
15/10:00pm 2.1 -2.1 1.8 98 0.1 ENE 13 17 7 9 1025.3 1020.5 0.2
15/09:30pm 2.0 -2.2 1.7 98 0.1 ENE 13 17 7 9 1025.0 1020.1 0.2
15/09:00pm 2.3 -1.5 2.0 98 0.1 ENE 11 15 6 8 1024.5 1019.6 0.2
15/08:30pm 2.5 -0.8 2.2 98 0.1 E 9 17 5 9 1024.3 1019.5 0.2
15/08:00pm 2.8 -0.1 2.5 98 0.1 ENE 7 13 4 7 1024.2 1019.4 0.2
15/07:30pm 3.4 -0.2 3.1 98 0.1 ENE 11 15 6 8 1024.1 1019.2 0.2
15/07:00pm 3.9 0.8 3.5 97 0.2 E 9 15 5 8 1023.7 1018.9 0.2
15/06:30pm 4.8 2.4 4.4 97 0.2 E 6 9 3 5 1023.4 1018.5 0.2
15/06:00pm 5.2 3.3 4.8 97 0.2 SE 4 7 2 4 1023.3 1018.4 0.2
15/05:30pm 5.7 4.3 5.4 98 0.1 SE 2 7 1 4 1023.3 1018.4 0.2
15/05:00pm 5.1 2.8 4.7 97 0.2 E 6 9 3 5 1023.1 1018.2 0.2
15/04:30pm 5.9 3.7 5.5 97 0.2 SE 6 9 3 5 1023.1 1018.2 0.0
15/04:00pm 7.9 6.0 6.7 92 0.6 E 6 15 3 8 1023.0 1018.1 0.0
15/03:30pm 8.4 6.9 6.7 89 0.9 SSW 4 7 2 4 1023.1 1018.2 0.0
15/03:00pm 8.0 6.0 6.3 89 0.9 SE 6 11 3 6 1023.4 1018.5 0.0
15/02:30pm 10.3 7.5 5.1 70 2.6 NW 9 24 5 13 1023.3 1018.4 0.0
15/02:00pm 9.8 4.8 4.8 71 2.5 NW 20 33 11 18 1023.3 1018.4 0.0
15/01:30pm 10.5 5.8 5.3 70 2.7 NW 19 26 10 14 1023.5 1018.6 0.0
15/01:00pm 10.8 5.4 4.3 64 3.3 NNW 22 37 12 20 1023.1 1018.2 0.0
15/12:30pm 11.7 6.1 5.3 65 3.3 NW 24 41 13 22 1023.3 1018.4 0.0
15/12:00pm 10.3 3.0 4.5 67 2.9 NNW 32 41 17 22 1022.8 1017.9 0.0
15/11:30am 9.6 2.7 4.4 70 2.6 NNW 30 39 16 21 1023.0 1018.1 0.0
15/11:00am 10.0 2.8 5.0 71 2.5 NNW 32 44 17 24 1022.8 1017.9 0.0
15/10:30am 9.7 3.4 5.5 75 2.1 NNW 28 39 15 21 1022.7 1017.7 0.0
15/10:00am 9.4 4.1 4.8 73 2.3 NNW 22 39 12 21 1022.8 1017.9 0.0
15/09:30am 8.9 3.0 5.6 80 1.7 NNW 26 39 14 21 1022.7 1017.7 0.0
15/09:00am 9.1 4.4 6.0 81 1.6 NW 20 32 11 17 1022.7 1017.7 6.8
15/08:30am 8.2 2.8 6.2 87 1.0 NW 24 35 13 19 1022.5 1017.6 6.8
15/08:00am 8.1 3.1 6.4 89 0.9 NW 22 35 12 19 1021.9 1017.0 6.8
15/07:32am 8.1 1.8 5.9 86 1.1 NW 28 46 15 25 1021.6 1016.6 6.8
15/07:30am 8.0 1.4 6.1 88 1.0 NW 30 46 16 25 1021.6 1016.6 6.8
15/07:00am 7.2 0.6 6.0 92 0.6 NW 30 43 16 23 1021.2 1016.2 6.8
15/06:30am 7.0 0.3 5.8 92 0.6 NW 30 39 16 21 1020.8 1015.8 6.8
15/06:00am 6.9 1.9 6.3 96 0.3 NW 22 41 12 22 1020.5 1015.5 6.8
15/05:30am 6.9 1.5 6.5 97 0.2 NW 24 39 13 21 1020.5 1015.5 6.8
15/05:00am 7.3 1.6 6.6 95 0.4 NW 26 41 14 22 1020.5 1015.5 6.8
15/04:30am 7.4 1.7 6.5 94 0.5 NW 26 39 14 21 1020.2 1015.2 6.8
15/04:00am 7.6 1.2 6.9 95 0.4 NW 30 39 16 21 1020.1 1015.1 6.8
15/03:30am 7.6 2.8 7.2 97 0.2 NW 22 33 12 18 1020.5 1015.5 6.8
15/03:00am 7.7 2.1 7.3 97 0.2 WNW 26 39 14 21 1020.7 1015.7 6.6
15/02:30am 8.0 3.9 7.7 98 0.2 WNW 19 32 10 17 1020.7 1015.7 6.6
15/02:00am 8.0 2.9 7.7 98 0.2 WNW 24 35 13 19 1020.8 1015.8 6.6
15/01:30am 8.2 4.1 7.8 97 0.2 WNW 19 33 10 18 1021.3 1016.3 6.6
15/01:00am 8.2 3.2 7.9 98 0.2 WNW 24 33 13 18 1021.1 1016.1 6.6
15/12:30am 8.3 1.8 8.0 98 0.2 NW 32 46 17 25 1021.2 1016.2 6.6
15/12:00am 8.3 0.8 7.9 97 0.2 NNW 37 48 20 26 1021.1 1016.1 5.4
 
Date/Time
EDT
Temp
°C
App
Temp
°C
Dew
Point
°C
Rel
Hum
%
Delta-T
°C
Wind Press
QNH
hPa
Press
MSL
hPa
Rain since
9am
mm
Dir  Spd
km/h
Gust
km/h
Spd
kts
Gust
kts
14/11:30pm 8.3 -0.5 7.9 97 0.2 NNW 44 56 24 30 1020.5 1015.5 5.4
14/11:00pm 8.0 0.4 7.6 97 0.2 NW 37 46 20 25 1020.8 1015.8 5.2
14/10:30pm 8.0 1.2 7.6 97 0.2 NW 33 46 18 25 1020.7 1015.7 5.2
14/10:00pm 8.0 1.2 7.6 97 0.2 NW 33 43 18 23 1021.3 1016.3 5.2
14/09:30pm 7.9 1.6 7.5 97 0.2 NW 30 41 16 22 1021.1 1016.1 5.2
14/09:00pm 7.7 1.0 7.3 97 0.2 NW 32 44 17 24 1020.8 1015.8 5.2
14/08:30pm 8.0 0.4 7.6 97 0.2 WNW 37 56 20 30 1020.5 1015.5 5.2
14/08:00pm 8.0 0.4 7.6 97 0.2 WNW 37 54 20 29 1020.1 1015.1 5.2
14/07:59pm 8.1 0.9 7.7 97 0.2 WNW 35 54 19 29 1019.9 1014.8 5.2
14/07:30pm 7.9 1.6 7.6 98 0.2 WNW 30 44 16 24 1020.0 1015.0 5.2
14/07:05pm 8.0 1.2 7.6 97 0.2 WNW 33 52 18 28 1019.5 1014.5 5.2
14/07:00pm 8.0 2.1 7.6 97 0.2 WNW 28 43 15 23 1019.7 1014.7 5.2
14/06:30pm 8.0 2.5 7.6 97 0.2 WNW 26 43 14 23 1019.9 1014.8 5.2
14/06:05pm 8.0 2.0 6.9 93 0.6 W 28 50 15 27 1019.7 1014.7 4.8
14/06:00pm 8.5 2.7 8.1 97 0.2 W 28 41 15 22 1019.9 1014.8 4.2
14/05:30pm 8.4 3.0 8.0 97 0.2 WNW 26 41 14 22 1019.7 1014.7 3.8
14/05:00pm 8.5 2.7 8.1 97 0.2 WNW 28 44 15 24 1019.5 1014.5 3.8
14/04:30pm 8.5 1.4 8.1 97 0.2 NW 35 56 19 30 1019.0 1013.9 3.6
14/04:14pm 8.8 3.1 8.4 97 0.2 WNW 28 50 15 27 1019.1 1014.1 3.6
14/04:00pm 8.7 3.4 8.3 97 0.2 WNW 26 44 14 24 1019.4 1014.3 3.6

Latest Capital City Observations: Canberra | Sydney | Melbourne | Brisbane | Adelaide | Perth | Hobart | Darwin

Other Formats:

Comma delimited format used in spreadsheet applications
http://www.bom.gov.au/fwo/IDN60903/IDN60903.95909.axf

JavaScript Object Notation format (JSON) in row-major order
http://www.bom.gov.au/fwo/IDN60903/IDN60903.95909.json